sensor_id;sensor_type;location;lat;lon;timestamp;pressure;altitude;pressure_sealevel;temperature;humidity
8298;BME280;4187;42.778;23.242;2023-05-07T00:01:01;95526.09;;;9.14;100.00
8298;BME280;4187;42.778;23.242;2023-05-07T00:03:34;95518.56;;;9.09;100.00
8298;BME280;4187;42.778;23.242;2023-05-07T00:06:06;95505.34;;;8.99;100.00
8298;BME280;4187;42.778;23.242;2023-05-07T00:08:41;95520.69;;;9.15;100.00
8298;BME280;4187;42.778;23.242;2023-05-07T00:11:10;95516.94;;;9.18;100.00
8298;BME280;4187;42.778;23.242;2023-05-07T00:13:46;95494.22;;;8.96;100.00
8298;BME280;4187;42.778;23.242;2023-05-07T00:16:16;95508.59;;;9.13;100.00
8298;BME280;4187;42.778;23.242;2023-05-07T00:18:47;95509.88;;;9.18;100.00
8298;BME280;4187;42.778;23.242;2023-05-07T00:21:23;95521.50;;;9.16;100.00
8298;BME280;4187;42.778;23.242;2023-05-07T00:23:57;95519.13;;;9.13;100.00
8298;BME280;4187;42.778;23.242;2023-05-07T00:26:31;95512.84;;;9.04;100.00
8298;BME280;4187;42.778;23.242;2023-05-07T00:29:03;95519.78;;;9.05;100.00
8298;BME280;4187;42.778;23.242;2023-05-07T00:31:38;95516.38;;;9.14;100.00
8298;BME280;4187;42.778;23.242;2023-05-07T00:34:12;95521.38;;;9.17;100.00
8298;BME280;4187;42.778;23.242;2023-05-07T00:36:42;95507.72;;;9.02;100.00
8298;BME280;4187;42.778;23.242;2023-05-07T00:39:16;95523.81;;;9.09;100.00
8298;BME280;4187;42.778;23.242;2023-05-07T00:41:50;95525.94;;;9.15;100.00
8298;BME280;4187;42.778;23.242;2023-05-07T00:44:28;95522.69;;;9.02;100.00
8298;BME280;4187;42.778;23.242;2023-05-07T00:47:05;95522.34;;;8.95;100.00
8298;BME280;4187;42.778;23.242;2023-05-07T00:49:39;95524.13;;;8.95;100.00
8298;BME280;4187;42.778;23.242;2023-05-07T00:52:13;95527.09;;;9.01;100.00
8298;BME280;4187;42.778;23.242;2023-05-07T00:54:44;95496.09;;;8.84;100.00
8298;BME280;4187;42.778;23.242;2023-05-07T00:57:22;95526.91;;;8.93;100.00
8298;BME280;4187;42.778;23.242;2023-05-07T00:59:57;95508.81;;;8.79;100.00
8298;BME280;4187;42.778;23.242;2023-05-07T01:02:27;95523.00;;;8.88;100.00
8298;BME280;4187;42.778;23.242;2023-05-07T01:05:01;95523.44;;;8.93;100.00
8298;BME280;4187;42.778;23.242;2023-05-07T01:07:32;95522.53;;;9.03;100.00
8298;BME280;4187;42.778;23.242;2023-05-07T01:10:05;95522.69;;;9.02;100.00
8298;BME280;4187;42.778;23.242;2023-05-07T01:12:34;95521.00;;;9.01;100.00
8298;BME280;4187;42.778;23.242;2023-05-07T01:15:10;95522.09;;;8.98;100.00
8298;BME280;4187;42.778;23.242;2023-05-07T01:17:44;95524.63;;;9.00;100.00
8298;BME280;4187;42.778;23.242;2023-05-07T01:20:18;95522.69;;;9.02;100.00
8298;BME280;4187;42.778;23.242;2023-05-07T01:22:52;95515.53;;;8.93;100.00
8298;BME280;4187;42.778;23.242;2023-05-07T01:25:27;95527.56;;;8.86;100.00
8298;BME280;4187;42.778;23.242;2023-05-07T01:27:58;95529.81;;;8.90;100.00
8298;BME280;4187;42.778;23.242;2023-05-07T01:30:32;95533.97;;;8.93;100.00
8298;BME280;4187;42.778;23.242;2023-05-07T01:33:11;95516.16;;;8.76;100.00
8298;BME280;4187;42.778;23.242;2023-05-07T01:35:51;95495.97;;;8.65;100.00
8298;BME280;4187;42.778;23.242;2023-05-07T01:38:31;95505.47;;;8.77;100.00
8298;BME280;4187;42.778;23.242;2023-05-07T01:41:07;95526.91;;;8.93;100.00
8298;BME280;4187;42.778;23.242;2023-05-07T01:43:46;95525.56;;;8.99;100.00
8298;BME280;4187;42.778;23.242;2023-05-07T01:46:28;95524.47;;;9.01;100.00
8298;BME280;4187;42.778;23.242;2023-05-07T01:49:02;95521.25;;;8.98;100.00
8298;BME280;4187;42.778;23.242;2023-05-07T01:51:34;95518.44;;;8.90;100.00
8298;BME280;4187;42.778;23.242;2023-05-07T01:54:14;95520.38;;;8.88;100.00
8298;BME280;4187;42.778;23.242;2023-05-07T01:56:45;95516.34;;;8.84;100.00
8298;BME280;4187;42.778;23.242;2023-05-07T01:59:18;95519.53;;;8.87;100.00
8298;BME280;4187;42.778;23.242;2023-05-07T02:01:51;95516.59;;;8.81;100.00
8298;BME280;4187;42.778;23.242;2023-05-07T02:04:23;95508.03;;;8.68;100.00
8298;BME280;4187;42.778;23.242;2023-05-07T02:07:02;95494.22;;;8.55;100.00
8298;BME280;4187;42.778;23.242;2023-05-07T02:09:35;95510.16;;;8.53;100.00
8298;BME280;4187;42.778;23.242;2023-05-07T02:12:08;95504.09;;;8.41;100.00
8298;BME280;4187;42.778;23.242;2023-05-07T02:14:47;95509.59;;;8.38;100.00
8298;BME280;4187;42.778;23.242;2023-05-07T02:17:21;95498.03;;;8.30;100.00
8298;BME280;4187;42.778;23.242;2023-05-07T02:19:55;95505.22;;;8.28;100.00
8298;BME280;4187;42.778;23.242;2023-05-07T02:22:30;95502.53;;;8.07;100.00
8298;BME280;4187;42.778;23.242;2023-05-07T02:25:11;95504.69;;;8.02;100.00
8298;BME280;4187;42.778;23.242;2023-05-07T02:27:45;95497.06;;;7.99;100.00
8298;BME280;4187;42.778;23.242;2023-05-07T02:30:25;95486.38;;;7.80;100.00
8298;BME280;4187;42.778;23.242;2023-05-07T02:33:09;95458.22;;;7.60;100.00
8298;BME280;4187;42.778;23.242;2023-05-07T02:35:48;95446.47;;;7.32;100.00
8298;BME280;4187;42.778;23.242;2023-05-07T02:38:23;95405.19;;;6.90;100.00
8298;BME280;4187;42.778;23.242;2023-05-07T02:41:01;95402.25;;;6.83;100.00
8298;BME280;4187;42.778;23.242;2023-05-07T02:43:35;95507.69;;;7.21;100.00
8298;BME280;4187;42.778;23.242;2023-05-07T02:46:14;95497.75;;;7.03;100.00
8298;BME280;4187;42.778;23.242;2023-05-07T02:48:49;95315.81;;;5.80;100.00
8298;BME280;4187;42.778;23.242;2023-05-07T02:51:25;95466.16;;;6.93;100.00
8298;BME280;4187;42.778;23.242;2023-05-07T02:54:06;95443.13;;;6.86;100.00
8298;BME280;4187;42.778;23.242;2023-05-07T02:56:57;95509.00;;;7.27;100.00
8298;BME280;4187;42.778;23.242;2023-05-07T02:59:37;95291.25;;;5.94;100.00
8298;BME280;4187;42.778;23.242;2023-05-07T03:02:11;95375.28;;;6.48;100.00
8298;BME280;4187;42.778;23.242;2023-05-07T03:05:02;95512.31;;;7.40;100.00
8298;BME280;4187;42.778;23.242;2023-05-07T03:07:43;95507.88;;;7.52;100.00
8298;BME280;4187;42.778;23.242;2023-05-07T03:10:16;95479.50;;;7.35;100.00
8298;BME280;4187;42.778;23.242;2023-05-07T03:13:05;95379.81;;;6.68;100.00
8298;BME280;4187;42.778;23.242;2023-05-07T03:15:46;95463.88;;;7.22;100.00
8298;BME280;4187;42.778;23.242;2023-05-07T03:18:40;95526.53;;;7.49;100.00
8298;BME280;4187;42.778;23.242;2023-05-07T03:21:20;95496.22;;;7.22;100.00
8298;BME280;4187;42.778;23.242;2023-05-07T03:24:04;95427.75;;;6.81;100.00
8298;BME280;4187;42.778;23.242;2023-05-07T03:26:41;95344.50;;;6.28;100.00
8298;BME280;4187;42.778;23.242;2023-05-07T03:32:18;95531.78;;;7.49;100.00
8298;BME280;4187;42.778;23.242;2023-05-07T03:34:48;95393.88;;;6.56;100.00
8298;BME280;4187;42.778;23.242;2023-05-07T03:37:22;95382.06;;;6.39;100.00
8298;BME280;4187;42.778;23.242;2023-05-07T03:39:55;95410.47;;;6.68;100.00
8298;BME280;4187;42.778;23.242;2023-05-07T03:42:36;95323.28;;;6.09;100.00
8298;BME280;4187;42.778;23.242;2023-05-07T03:45:06;95408.16;;;6.52;100.00
8298;BME280;4187;42.778;23.242;2023-05-07T03:47:41;95452.16;;;6.71;100.00
8298;BME280;4187;42.778;23.242;2023-05-07T03:50:14;95429.38;;;6.60;100.00
8298;BME280;4187;42.778;23.242;2023-05-07T03:52:50;95420.06;;;6.34;100.00
8298;BME280;4187;42.778;23.242;2023-05-07T03:55:24;95313.31;;;5.79;100.00
8298;BME280;4187;42.778;23.242;2023-05-07T03:57:54;95531.03;;;7.02;100.00
8298;BME280;4187;42.778;23.242;2023-05-07T04:00:22;95556.47;;;7.24;100.00
8298;BME280;4187;42.778;23.242;2023-05-07T04:02:52;95549.06;;;7.29;100.00
8298;BME280;4187;42.778;23.242;2023-05-07T04:05:20;95538.44;;;7.19;100.00
8298;BME280;4187;42.778;23.242;2023-05-07T04:07:48;95475.94;;;6.91;100.00
8298;BME280;4187;42.778;23.242;2023-05-07T04:10:16;95549.91;;;7.41;100.00
8298;BME280;4187;42.778;23.242;2023-05-07T04:12:45;95496.19;;;7.11;100.00
8298;BME280;4187;42.778;23.242;2023-05-07T04:15:15;95527.09;;;7.30;100.00
8298;BME280;4187;42.778;23.242;2023-05-07T04:17:44;95499.44;;;7.26;100.00
8298;BME280;4187;42.778;23.242;2023-05-07T04:20:19;95514.44;;;7.46;100.00
8298;BME280;4187;42.778;23.242;2023-05-07T04:22:51;95580.78;;;8.04;100.00
8298;BME280;4187;42.778;23.242;2023-05-07T04:25:23;95579.22;;;8.12;100.00
8298;BME280;4187;42.778;23.242;2023-05-07T04:27:56;95574.66;;;8.14;100.00
8298;BME280;4187;42.778;23.242;2023-05-07T04:30:30;95532.31;;;7.97;100.00
8298;BME280;4187;42.778;23.242;2023-05-07T04:33:03;95478.78;;;8.40;100.00
8298;BME280;4187;42.778;23.242;2023-05-07T04:35:50;95467.59;;;9.50;100.00
8298;BME280;4187;42.778;23.242;2023-05-07T04:38:26;95457.50;;;10.33;100.00
8298;BME280;4187;42.778;23.242;2023-05-07T04:41:03;95469.84;;;10.80;100.00
8298;BME280;4187;42.778;23.242;2023-05-07T04:43:40;95497.00;;;11.56;100.00
8298;BME280;4187;42.778;23.242;2023-05-07T04:46:13;95496.44;;;11.89;100.00
8298;BME280;4187;42.778;23.242;2023-05-07T04:48:44;95541.66;;;12.41;100.00
8298;BME280;4187;42.778;23.242;2023-05-07T04:51:15;95596.91;;;13.16;100.00
8298;BME280;4187;42.778;23.242;2023-05-07T04:53:46;95609.41;;;13.49;100.00
8298;BME280;4187;42.778;23.242;2023-05-07T04:56:16;95606.63;;;13.51;100.00
8298;BME280;4187;42.778;23.242;2023-05-07T04:58:52;95597.81;;;13.25;100.00
8298;BME280;4187;42.778;23.242;2023-05-07T05:01:21;95508.78;;;12.43;100.00
8298;BME280;4187;42.778;23.242;2023-05-07T05:03:53;95486.94;;;11.96;100.00
8298;BME280;4187;42.778;23.242;2023-05-07T05:06:26;95590.41;;;12.48;100.00
8298;BME280;4187;42.778;23.242;2023-05-07T05:08:57;95603.75;;;12.46;100.00
8298;BME280;4187;42.778;23.242;2023-05-07T05:11:26;95571.50;;;12.16;100.00
8298;BME280;4187;42.778;23.242;2023-05-07T05:13:55;95597.75;;;12.27;100.00
8298;BME280;4187;42.778;23.242;2023-05-07T05:16:23;95536.53;;;11.94;100.00
8298;BME280;4187;42.778;23.242;2023-05-07T05:18:53;95576.50;;;12.19;100.00
8298;BME280;4187;42.778;23.242;2023-05-07T05:21:26;95591.06;;;12.32;100.00
8298;BME280;4187;42.778;23.242;2023-05-07T05:23:58;95585.31;;;12.37;100.00
8298;BME280;4187;42.778;23.242;2023-05-07T05:26:28;95591.06;;;12.50;100.00
8298;BME280;4187;42.778;23.242;2023-05-07T05:29:01;95579.22;;;12.54;100.00
8298;BME280;4187;42.778;23.242;2023-05-07T05:31:33;95592.53;;;12.80;100.00
8298;BME280;4187;42.778;23.242;2023-05-07T05:34:05;95571.06;;;12.83;100.00
8298;BME280;4187;42.778;23.242;2023-05-07T05:36:39;95596.81;;;13.08;100.00
8298;BME280;4187;42.778;23.242;2023-05-07T05:39:12;95602.59;;;13.47;100.00
8298;BME280;4187;42.778;23.242;2023-05-07T05:41:46;95593.13;;;13.96;100.00
8298;BME280;4187;42.778;23.242;2023-05-07T05:44:19;95583.59;;;14.11;100.00
8298;BME280;4187;42.778;23.242;2023-05-07T05:46:51;95621.06;;;14.33;100.00
8298;BME280;4187;42.778;23.242;2023-05-07T05:49:22;95608.63;;;14.34;100.00
8298;BME280;4187;42.778;23.242;2023-05-07T05:52:00;95599.25;;;14.22;100.00
8298;BME280;4187;42.778;23.242;2023-05-07T05:54:30;95621.72;;;14.35;100.00
8298;BME280;4187;42.778;23.242;2023-05-07T05:57:11;95618.06;;;14.36;100.00
8298;BME280;4187;42.778;23.242;2023-05-07T05:59:41;95612.66;;;14.46;100.00
8298;BME280;4187;42.778;23.242;2023-05-07T06:02:14;95611.53;;;14.57;100.00
8298;BME280;4187;42.778;23.242;2023-05-07T06:04:46;95607.25;;;14.72;100.00
8298;BME280;4187;42.778;23.242;2023-05-07T06:07:22;95608.44;;;14.85;100.00
8298;BME280;4187;42.778;23.242;2023-05-07T06:09:54;95600.84;;;15.07;100.00
8298;BME280;4187;42.778;23.242;2023-05-07T06:12:27;95589.03;;;15.09;100.00
8298;BME280;4187;42.778;23.242;2023-05-07T06:14:58;95602.69;;;15.30;100.00
8298;BME280;4187;42.778;23.242;2023-05-07T06:17:36;95608.50;;;15.42;100.00
8298;BME280;4187;42.778;23.242;2023-05-07T06:20:08;95606.06;;;15.57;100.00
8298;BME280;4187;42.778;23.242;2023-05-07T06:22:41;95605.84;;;15.74;100.00
8298;BME280;4187;42.778;23.242;2023-05-07T06:25:11;95595.72;;;15.78;100.00
8298;BME280;4187;42.778;23.242;2023-05-07T06:27:41;95603.00;;;15.92;100.00
8298;BME280;4187;42.778;23.242;2023-05-07T06:30:12;95602.47;;;16.04;100.00
8298;BME280;4187;42.778;23.242;2023-05-07T06:32:45;95593.13;;;16.17;100.00
8298;BME280;4187;42.778;23.242;2023-05-07T06:35:19;95598.81;;;16.13;100.00
8298;BME280;4187;42.778;23.242;2023-05-07T06:38:01;95594.63;;;16.19;100.00
8298;BME280;4187;42.778;23.242;2023-05-07T06:40:36;95586.72;;;16.34;100.00
8298;BME280;4187;42.778;23.242;2023-05-07T06:43:12;95565.53;;;16.48;100.00
8298;BME280;4187;42.778;23.242;2023-05-07T06:45:44;95587.25;;;16.68;100.00
8298;BME280;4187;42.778;23.242;2023-05-07T06:48:17;95575.50;;;16.62;100.00
8298;BME280;4187;42.778;23.242;2023-05-07T06:50:48;95579.66;;;16.88;100.00
8298;BME280;4187;42.778;23.242;2023-05-07T06:53:23;95583.84;;;17.13;100.00
8298;BME280;4187;42.778;23.242;2023-05-07T06:55:53;95586.94;;;17.24;100.00
8298;BME280;4187;42.778;23.242;2023-05-07T06:58:25;95586.13;;;17.39;100.00
8298;BME280;4187;42.778;23.242;2023-05-07T07:00:56;95585.44;;;17.67;100.00
8298;BME280;4187;42.778;23.242;2023-05-07T07:03:25;95587.59;;;17.86;100.00
8298;BME280;4187;42.778;23.242;2023-05-07T07:05:54;95586.78;;;18.15;100.00
8298;BME280;4187;42.778;23.242;2023-05-07T07:08:27;95594.34;;;18.26;100.00
8298;BME280;4187;42.778;23.242;2023-05-07T07:10:55;95577.84;;;18.37;100.00
8298;BME280;4187;42.778;23.242;2023-05-07T07:13:24;95587.66;;;18.60;100.00
8298;BME280;4187;42.778;23.242;2023-05-07T07:15:53;95581.09;;;18.62;100.00
8298;BME280;4187;42.778;23.242;2023-05-07T07:18:21;95576.00;;;18.67;100.00
8298;BME280;4187;42.778;23.242;2023-05-07T07:20:49;95585.53;;;18.91;100.00
8298;BME280;4187;42.778;23.242;2023-05-07T07:23:18;95591.78;;;18.98;100.00
8298;BME280;4187;42.778;23.242;2023-05-07T07:25:49;95594.81;;;19.09;100.00
8298;BME280;4187;42.778;23.242;2023-05-07T07:28:20;95589.91;;;19.13;100.00
8298;BME280;4187;42.778;23.242;2023-05-07T07:30:48;95581.94;;;19.20;100.00
8298;BME280;4187;42.778;23.242;2023-05-07T07:33:17;95586.63;;;19.32;100.00
8298;BME280;4187;42.778;23.242;2023-05-07T07:35:47;95589.25;;;19.47;100.00
8298;BME280;4187;42.778;23.242;2023-05-07T07:38:16;95588.56;;;19.59;100.00
8298;BME280;4187;42.778;23.242;2023-05-07T07:40:47;95600.59;;;19.70;100.00
8298;BME280;4187;42.778;23.242;2023-05-07T07:43:16;95598.59;;;19.79;100.00
8298;BME280;4187;42.778;23.242;2023-05-07T07:45:44;95594.81;;;19.94;100.00
8298;BME280;4187;42.778;23.242;2023-05-07T07:48:14;95599.66;;;20.12;98.32
8298;BME280;4187;42.778;23.242;2023-05-07T07:50:43;95606.72;;;20.19;96.50
8298;BME280;4187;42.778;23.242;2023-05-07T07:53:12;95587.56;;;20.22;97.68
8298;BME280;4187;42.778;23.242;2023-05-07T07:55:43;95601.13;;;20.42;97.00
8298;BME280;4187;42.778;23.242;2023-05-07T07:58:12;95593.81;;;20.64;95.72
8298;BME280;4187;42.778;23.242;2023-05-07T08:00:44;95593.06;;;20.76;93.00
8298;BME280;4187;42.778;23.242;2023-05-07T08:03:13;95592.31;;;20.89;93.15
8298;BME280;4187;42.778;23.242;2023-05-07T08:05:45;95588.81;;;21.02;92.98
8298;BME280;4187;42.778;23.242;2023-05-07T08:08:18;95588.53;;;21.24;91.79
8298;BME280;4187;42.778;23.242;2023-05-07T08:10:50;95593.69;;;21.39;89.65
8298;BME280;4187;42.778;23.242;2023-05-07T08:13:20;95583.00;;;21.45;89.77
8298;BME280;4187;42.778;23.242;2023-05-07T08:15:54;95581.56;;;21.56;89.31
8298;BME280;4187;42.778;23.242;2023-05-07T08:18:28;95580.75;;;21.62;89.50
8298;BME280;4187;42.778;23.242;2023-05-07T08:20:58;95587.34;;;21.73;89.26
8298;BME280;4187;42.778;23.242;2023-05-07T09:17:25;95523.84;;;24.07;73.97
8298;BME280;4187;42.778;23.242;2023-05-07T09:19:52;95520.13;;;24.08;75.67
8298;BME280;4187;42.778;23.242;2023-05-07T09:22:19;95519.88;;;24.16;76.10
8298;BME280;4187;42.778;23.242;2023-05-07T09:24:47;95516.97;;;24.35;73.33
8298;BME280;4187;42.778;23.242;2023-05-07T09:27:14;95498.41;;;24.03;69.35
8298;BME280;4187;42.778;23.242;2023-05-07T09:29:41;95509.19;;;24.03;72.25
8298;BME280;4187;42.778;23.242;2023-05-07T09:32:09;95505.06;;;24.25;71.31
8298;BME280;4187;42.778;23.242;2023-05-07T09:34:37;95507.91;;;24.48;71.32
8298;BME280;4187;42.778;23.242;2023-05-07T09:37:05;95465.31;;;24.50;73.50
8298;BME280;4187;42.778;23.242;2023-05-07T09:39:39;95503.97;;;24.98;72.00
8298;BME280;4187;42.778;23.242;2023-05-07T09:42:06;95507.47;;;25.29;69.25
8298;BME280;4187;42.778;23.242;2023-05-07T09:44:33;95507.28;;;25.42;67.58
8298;BME280;4187;42.778;23.242;2023-05-07T09:47:01;95495.88;;;25.70;69.05
8298;BME280;4187;42.778;23.242;2023-05-07T09:49:33;95475.41;;;25.85;67.18
8298;BME280;4187;42.778;23.242;2023-05-07T09:52:03;95493.22;;;26.16;65.49
8298;BME280;4187;42.778;23.242;2023-05-07T09:54:32;95492.97;;;26.18;66.54
8298;BME280;4187;42.778;23.242;2023-05-07T09:57:01;95486.50;;;26.30;64.95
8298;BME280;4187;42.778;23.242;2023-05-07T09:59:30;95492.25;;;26.34;63.96
8298;BME280;4187;42.778;23.242;2023-05-07T10:01:58;95488.34;;;26.41;66.21
8298;BME280;4187;42.778;23.242;2023-05-07T10:04:26;95482.25;;;26.46;64.04
8298;BME280;4187;42.778;23.242;2023-05-07T10:06:53;95484.69;;;26.59;66.36
8298;BME280;4187;42.778;23.242;2023-05-07T10:09:22;95485.81;;;26.86;62.55
8298;BME280;4187;42.778;23.242;2023-05-07T10:11:49;95474.88;;;27.09;61.76
8298;BME280;4187;42.778;23.242;2023-05-07T10:14:17;95469.81;;;27.13;61.01
8298;BME280;4187;42.778;23.242;2023-05-07T10:16:44;95477.06;;;27.24;59.82
8298;BME280;4187;42.778;23.242;2023-05-07T10:19:11;95453.19;;;27.09;50.93
8298;BME280;4187;42.778;23.242;2023-05-07T10:21:42;95445.22;;;26.63;47.70
8298;BME280;4187;42.778;23.242;2023-05-07T10:24:15;95411.53;;;26.42;51.86
8298;BME280;4187;42.778;23.242;2023-05-07T10:26:51;95452.00;;;26.77;51.51
8298;BME280;4187;42.778;23.242;2023-05-07T10:29:29;95446.41;;;26.67;48.22
8298;BME280;4187;42.778;23.242;2023-05-07T10:32:00;95417.09;;;26.24;50.29
8298;BME280;4187;42.778;23.242;2023-05-07T10:34:34;95423.66;;;26.40;47.83
8298;BME280;4187;42.778;23.242;2023-05-07T10:37:02;95442.88;;;26.78;54.06
8298;BME280;4187;42.778;23.242;2023-05-07T10:39:30;95438.91;;;26.97;48.14
8298;BME280;4187;42.778;23.242;2023-05-07T10:42:07;95427.44;;;27.23;50.82
8298;BME280;4187;42.778;23.242;2023-05-07T10:44:34;95411.53;;;27.27;51.32
8298;BME280;4187;42.778;23.242;2023-05-07T10:47:09;95433.50;;;27.59;50.27
8298;BME280;4187;42.778;23.242;2023-05-07T10:49:37;95442.63;;;27.86;47.49
8298;BME280;4187;42.778;23.242;2023-05-07T10:52:17;95433.09;;;27.67;44.80
8298;BME280;4187;42.778;23.242;2023-05-07T10:54:45;95430.28;;;27.45;46.16
8298;BME280;4187;42.778;23.242;2023-05-07T10:57:35;95425.84;;;27.56;47.36
8298;BME280;4187;42.778;23.242;2023-05-07T11:00:41;95428.84;;;27.71;47.10
8298;BME280;4187;42.778;23.242;2023-05-07T11:03:08;95431.06;;;27.57;47.04
8298;BME280;4187;42.778;23.242;2023-05-07T11:05:35;95427.59;;;27.45;43.78
8298;BME280;4187;42.778;23.242;2023-05-07T11:08:03;95378.63;;;26.90;44.76
8298;BME280;4187;42.778;23.242;2023-05-07T11:10:48;95426.84;;;27.05;45.60
8298;BME280;4187;42.778;23.242;2023-05-07T11:13:17;95427.63;;;27.17;49.51
8298;BME280;4187;42.778;23.242;2023-05-07T11:15:45;95425.69;;;27.46;47.60
8298;BME280;4187;42.778;23.242;2023-05-07T11:18:13;95431.78;;;27.69;44.77
8298;BME280;4187;42.778;23.242;2023-05-07T11:20:48;95401.78;;;27.43;42.09
8298;BME280;4187;42.778;23.242;2023-05-07T11:23:56;95419.09;;;27.25;40.38
8298;BME280;4187;42.778;23.242;2023-05-07T11:26:28;95416.94;;;27.27;41.52
8298;BME280;4187;42.778;23.242;2023-05-07T11:28:57;95417.94;;;27.21;36.84
8298;BME280;4187;42.778;23.242;2023-05-07T11:31:27;95409.41;;;27.01;41.22
8298;BME280;4187;42.778;23.242;2023-05-07T11:33:55;95386.03;;;26.95;41.19
8298;BME280;4187;42.778;23.242;2023-05-07T11:36:23;95411.41;;;27.05;40.50
8298;BME280;4187;42.778;23.242;2023-05-07T11:38:51;95414.28;;;26.99;43.87
8298;BME280;4187;42.778;23.242;2023-05-07T11:41:18;95414.34;;;27.04;40.24
8298;BME280;4187;42.778;23.242;2023-05-07T11:44:00;95411.19;;;27.23;41.67
8298;BME280;4187;42.778;23.242;2023-05-07T11:46:27;95405.78;;;27.23;39.29
8298;BME280;4187;42.778;23.242;2023-05-07T11:48:55;95406.34;;;27.25;42.02
8298;BME280;4187;42.778;23.242;2023-05-07T11:51:23;95391.59;;;27.50;42.61
8298;BME280;4187;42.778;23.242;2023-05-07T11:53:52;95405.06;;;27.61;36.54
8298;BME280;4187;42.778;23.242;2023-05-07T11:56:19;95394.91;;;27.52;39.18
8298;BME280;4187;42.778;23.242;2023-05-07T11:58:46;95400.25;;;27.47;38.28
8298;BME280;4187;42.778;23.242;2023-05-07T12:01:15;95398.41;;;27.52;40.99
8298;BME280;4187;42.778;23.242;2023-05-07T12:03:44;95395.63;;;27.47;37.98
8298;BME280;4187;42.778;23.242;2023-05-07T12:06:13;95403.22;;;27.33;37.04
8298;BME280;4187;42.778;23.242;2023-05-07T12:08:41;95394.88;;;27.35;39.36
8298;BME280;4187;42.778;23.242;2023-05-07T12:11:09;95388.06;;;27.33;36.92
8298;BME280;4187;42.778;23.242;2023-05-07T12:13:36;95384.13;;;27.40;43.89
8298;BME280;4187;42.778;23.242;2023-05-07T12:16:05;95344.78;;;27.54;43.39
8298;BME280;4187;42.778;23.242;2023-05-07T12:18:35;95364.22;;;27.84;38.33
8298;BME280;4187;42.778;23.242;2023-05-07T12:21:04;95368.97;;;27.77;39.78
8298;BME280;4187;42.778;23.242;2023-05-07T12:23:31;95371.63;;;27.72;38.03
8298;BME280;4187;42.778;23.242;2023-05-07T12:25:59;95373.50;;;27.72;40.24
8298;BME280;4187;42.778;23.242;2023-05-07T12:28:26;95376.16;;;27.67;40.67
8298;BME280;4187;42.778;23.242;2023-05-07T12:30:52;95371.16;;;27.42;38.38
8298;BME280;4187;42.778;23.242;2023-05-07T12:33:24;95369.22;;;27.26;39.96
8298;BME280;4187;42.778;23.242;2023-05-07T12:35:54;95368.75;;;27.29;36.95
8298;BME280;4187;42.778;23.242;2023-05-07T12:38:21;95362.88;;;27.49;39.35
8298;BME280;4187;42.778;23.242;2023-05-07T12:40:49;95355.19;;;27.79;40.44
8298;BME280;4187;42.778;23.242;2023-05-07T12:43:18;95349.56;;;28.02;41.74
8298;BME280;4187;42.778;23.242;2023-05-07T12:45:46;95329.84;;;28.12;41.71
8298;BME280;4187;42.778;23.242;2023-05-07T12:48:14;95307.53;;;28.26;38.68
8298;BME280;4187;42.778;23.242;2023-05-07T12:50:41;95316.53;;;28.54;39.21
8298;BME280;4187;42.778;23.242;2023-05-07T12:53:11;95339.16;;;28.86;37.19
8298;BME280;4187;42.778;23.242;2023-05-07T12:55:42;95336.06;;;29.04;37.47
8298;BME280;4187;42.778;23.242;2023-05-07T12:58:15;95329.47;;;28.95;35.88
8298;BME280;4187;42.778;23.242;2023-05-07T13:00:42;95322.03;;;28.85;39.41
8298;BME280;4187;42.778;23.242;2023-05-07T13:03:10;95331.75;;;28.76;33.80
8298;BME280;4187;42.778;23.242;2023-05-07T13:05:37;95322.53;;;28.82;36.41
8298;BME280;4187;42.778;23.242;2023-05-07T13:08:04;95328.19;;;28.76;35.74
8298;BME280;4187;42.778;23.242;2023-05-07T13:10:32;95326.34;;;28.81;36.26
8298;BME280;4187;42.778;23.242;2023-05-07T13:12:59;95331.00;;;28.86;34.70
8298;BME280;4187;42.778;23.242;2023-05-07T13:15:26;95327.94;;;28.56;34.60
8298;BME280;4187;42.778;23.242;2023-05-07T13:17:54;95326.03;;;28.29;36.86
8298;BME280;4187;42.778;23.242;2023-05-07T13:20:21;95315.66;;;28.26;37.57
8298;BME280;4187;42.778;23.242;2023-05-07T13:22:48;95322.97;;;28.26;37.59
8298;BME280;4187;42.778;23.242;2023-05-07T13:25:15;95313.50;;;28.28;37.95
8298;BME280;4187;42.778;23.242;2023-05-07T13:27:43;95319.50;;;28.52;37.81
8298;BME280;4187;42.778;23.242;2023-05-07T13:30:10;95310.47;;;28.68;36.80
8298;BME280;4187;42.778;23.242;2023-05-07T13:32:37;95294.34;;;28.62;36.61
8298;BME280;4187;42.778;23.242;2023-05-07T13:35:04;95296.97;;;28.78;36.54
8298;BME280;4187;42.778;23.242;2023-05-07T13:37:31;95293.34;;;28.68;36.71
8298;BME280;4187;42.778;23.242;2023-05-07T13:39:58;95288.28;;;28.76;38.22
8298;BME280;4187;42.778;23.242;2023-05-07T13:42:25;95302.84;;;28.97;35.71
8298;BME280;4187;42.778;23.242;2023-05-07T13:44:53;95300.22;;;29.07;36.33
8298;BME280;4187;42.778;23.242;2023-05-07T13:47:20;95305.53;;;28.92;34.68
8298;BME280;4187;42.778;23.242;2023-05-07T13:49:46;95311.59;;;28.72;36.71
8298;BME280;4187;42.778;23.242;2023-05-07T13:52:15;95286.28;;;28.67;36.24
8298;BME280;4187;42.778;23.242;2023-05-07T13:54:42;95310.53;;;28.73;37.12
8298;BME280;4187;42.778;23.242;2023-05-07T13:57:08;95312.03;;;28.64;36.79
8298;BME280;4187;42.778;23.242;2023-05-07T13:59:35;95307.41;;;28.38;36.72
8298;BME280;4187;42.778;23.242;2023-05-07T14:02:03;95297.59;;;28.37;38.30
8298;BME280;4187;42.778;23.242;2023-05-07T14:04:31;95308.09;;;28.55;37.68
8298;BME280;4187;42.778;23.242;2023-05-07T14:06:57;95293.78;;;28.60;37.84
8298;BME280;4187;42.778;23.242;2023-05-07T14:09:24;95269.28;;;28.55;37.27
8298;BME280;4187;42.778;23.242;2023-05-07T14:11:51;95310.81;;;28.77;34.78
8298;BME280;4187;42.778;23.242;2023-05-07T14:14:18;95311.50;;;28.62;36.01
8298;BME280;4187;42.778;23.242;2023-05-07T14:16:45;95304.19;;;28.41;37.78
8298;BME280;4187;42.778;23.242;2023-05-07T14:19:13;95303.81;;;28.11;35.73
8298;BME280;4187;42.778;23.242;2023-05-07T14:21:41;95304.22;;;27.81;39.18
8298;BME280;4187;42.778;23.242;2023-05-07T14:24:07;95292.81;;;27.79;38.62
8298;BME280;4187;42.778;23.242;2023-05-07T14:26:35;95300.75;;;27.85;38.01
8298;BME280;4187;42.778;23.242;2023-05-07T14:29:02;95257.72;;;27.72;35.63